Terminal Aerodrome Forecast
Issued by NWS

Home | Current Version | Previous Version | Text Only | Print | Product List | Glossary On
Versions: 1 2 3 4 5 6 7 8 9 10 11 12 13 14 15 16 17 18
000
FTUS43 KGRB 281800 AAA
TAFAUW
TAF AMD
KAUW 281805Z 2818/2918 31004KT 3SM -SN BR SCT025 BKN040
     FM282000 30005KT P6SM SCT025 BKN040
     FM290000 30007KT P6SM SCT070
     FM290700 34008KT P6SM SCT030 BKN150
     FM291400 34006KT P6SM SCT025 BKN100=

USA.gov is the U.S. government's official web portal to all federal, state and local government web resources and services.